sensor_id;sensor_type;location;lat;lon;timestamp;P1;durP1;ratioP1;P2;durP2;ratioP2
68866;SDS011;56451;44.804;20.476;2023-04-09T00:00:34;53.38;;;28.80;;
68866;SDS011;56451;44.804;20.476;2023-04-09T00:03:01;53.13;;;28.95;;
68866;SDS011;56451;44.804;20.476;2023-04-09T00:05:27;51.35;;;29.00;;
68866;SDS011;56451;44.804;20.476;2023-04-09T00:07:53;52.60;;;28.73;;
68866;SDS011;56451;44.804;20.476;2023-04-09T00:10:19;51.15;;;29.98;;
68866;SDS011;56451;44.804;20.476;2023-04-09T00:12:45;47.72;;;27.40;;
68866;SDS011;56451;44.804;20.476;2023-04-09T00:15:11;48.65;;;27.35;;
68866;SDS011;56451;44.804;20.476;2023-04-09T00:17:37;51.33;;;28.67;;
68866;SDS011;56451;44.804;20.476;2023-04-09T00:20:03;51.95;;;27.92;;
68866;SDS011;56451;44.804;20.476;2023-04-09T00:22:29;50.38;;;28.77;;
68866;SDS011;56451;44.804;20.476;2023-04-09T00:24:56;54.00;;;28.98;;
68866;SDS011;56451;44.804;20.476;2023-04-09T00:27:22;54.13;;;30.48;;
68866;SDS011;56451;44.804;20.476;2023-04-09T00:29:48;55.97;;;32.25;;
68866;SDS011;56451;44.804;20.476;2023-04-09T00:32:14;53.92;;;30.67;;
68866;SDS011;56451;44.804;20.476;2023-04-09T00:34:40;55.72;;;31.60;;
68866;SDS011;56451;44.804;20.476;2023-04-09T00:37:06;52.30;;;30.02;;
68866;SDS011;56451;44.804;20.476;2023-04-09T00:39:32;51.20;;;28.30;;
68866;SDS011;56451;44.804;20.476;2023-04-09T00:41:59;51.10;;;30.52;;
68866;SDS011;56451;44.804;20.476;2023-04-09T00:44:27;49.10;;;28.67;;
68866;SDS011;56451;44.804;20.476;2023-04-09T00:46:54;49.88;;;29.75;;
68866;SDS011;56451;44.804;20.476;2023-04-09T00:49:20;50.05;;;29.08;;
68866;SDS011;56451;44.804;20.476;2023-04-09T00:51:48;49.67;;;28.50;;
68866;SDS011;56451;44.804;20.476;2023-04-09T00:54:15;52.53;;;28.50;;
68866;SDS011;56451;44.804;20.476;2023-04-09T00:56:41;53.00;;;29.30;;
68866;SDS011;56451;44.804;20.476;2023-04-09T00:59:07;49.78;;;28.98;;
68866;SDS011;56451;44.804;20.476;2023-04-09T01:01:33;50.70;;;29.97;;
68866;SDS011;56451;44.804;20.476;2023-04-09T01:03:58;54.22;;;29.77;;
68866;SDS011;56451;44.804;20.476;2023-04-09T01:09:09;53.03;;;31.08;;
68866;SDS011;56451;44.804;20.476;2023-04-09T01:11:58;55.78;;;30.52;;
68866;SDS011;56451;44.804;20.476;2023-04-09T01:14:34;51.80;;;30.45;;
68866;SDS011;56451;44.804;20.476;2023-04-09T01:17:25;51.67;;;30.80;;
68866;SDS011;56451;44.804;20.476;2023-04-09T01:22:47;52.47;;;30.45;;
68866;SDS011;56451;44.804;20.476;2023-04-09T01:26:15;50.20;;;29.52;;
68866;SDS011;56451;44.804;20.476;2023-04-09T01:28:15;48.38;;;26.98;;
68866;SDS011;56451;44.804;20.476;2023-04-09T01:30:44;48.35;;;26.75;;
68866;SDS011;56451;44.804;20.476;2023-04-09T01:33:15;45.78;;;25.50;;
68866;SDS011;56451;44.804;20.476;2023-04-09T01:35:43;43.53;;;25.25;;
68866;SDS011;56451;44.804;20.476;2023-04-09T01:38:11;46.00;;;26.65;;
68866;SDS011;56451;44.804;20.476;2023-04-09T01:40:39;45.17;;;26.60;;
68866;SDS011;56451;44.804;20.476;2023-04-09T01:43:05;47.42;;;26.48;;
68866;SDS011;56451;44.804;20.476;2023-04-09T01:45:32;50.03;;;27.95;;
68866;SDS011;56451;44.804;20.476;2023-04-09T01:47:59;50.65;;;27.75;;
68866;SDS011;56451;44.804;20.476;2023-04-09T01:50:26;51.17;;;26.52;;
68866;SDS011;56451;44.804;20.476;2023-04-09T01:52:52;47.33;;;26.85;;
68866;SDS011;56451;44.804;20.476;2023-04-09T01:55:18;48.75;;;28.17;;
68866;SDS011;56451;44.804;20.476;2023-04-09T01:57:44;52.33;;;28.23;;
68866;SDS011;56451;44.804;20.476;2023-04-09T02:00:10;45.40;;;25.55;;
68866;SDS011;56451;44.804;20.476;2023-04-09T02:05:18;49.97;;;26.92;;
68866;SDS011;56451;44.804;20.476;2023-04-09T02:07:50;52.60;;;28.17;;
68866;SDS011;56451;44.804;20.476;2023-04-09T02:10:21;46.42;;;26.70;;
68866;SDS011;56451;44.804;20.476;2023-04-09T02:12:50;48.33;;;26.73;;
68866;SDS011;56451;44.804;20.476;2023-04-09T02:15:18;48.15;;;26.92;;
68866;SDS011;56451;44.804;20.476;2023-04-09T02:17:46;50.13;;;28.00;;
68866;SDS011;56451;44.804;20.476;2023-04-09T02:20:15;47.83;;;26.42;;
68866;SDS011;56451;44.804;20.476;2023-04-09T02:22:42;47.97;;;27.65;;
68866;SDS011;56451;44.804;20.476;2023-04-09T02:25:08;45.88;;;27.45;;
68866;SDS011;56451;44.804;20.476;2023-04-09T02:27:34;49.97;;;26.90;;
68866;SDS011;56451;44.804;20.476;2023-04-09T02:30:00;45.88;;;26.35;;
68866;SDS011;56451;44.804;20.476;2023-04-09T02:32:26;50.80;;;27.70;;
68866;SDS011;56451;44.804;20.476;2023-04-09T02:34:52;45.27;;;26.00;;
68866;SDS011;56451;44.804;20.476;2023-04-09T02:37:18;44.72;;;25.15;;
68866;SDS011;56451;44.804;20.476;2023-04-09T02:39:46;45.28;;;25.13;;
68866;SDS011;56451;44.804;20.476;2023-04-09T02:42:11;46.80;;;25.00;;
68866;SDS011;56451;44.804;20.476;2023-04-09T02:44:38;46.47;;;26.80;;
68866;SDS011;56451;44.804;20.476;2023-04-09T02:47:04;47.70;;;25.48;;
68866;SDS011;56451;44.804;20.476;2023-04-09T02:49:30;49.67;;;26.35;;
68866;SDS011;56451;44.804;20.476;2023-04-09T02:51:56;46.95;;;25.75;;
68866;SDS011;56451;44.804;20.476;2023-04-09T02:54:22;46.20;;;26.30;;
68866;SDS011;56451;44.804;20.476;2023-04-09T02:56:48;49.45;;;27.40;;
68866;SDS011;56451;44.804;20.476;2023-04-09T02:59:14;51.10;;;27.00;;
68866;SDS011;56451;44.804;20.476;2023-04-09T03:01:40;46.78;;;25.85;;
68866;SDS011;56451;44.804;20.476;2023-04-09T03:04:06;48.70;;;26.77;;
68866;SDS011;56451;44.804;20.476;2023-04-09T03:06:32;52.80;;;27.67;;
68866;SDS011;56451;44.804;20.476;2023-04-09T03:08:59;48.55;;;25.77;;
68866;SDS011;56451;44.804;20.476;2023-04-09T03:11:24;45.47;;;24.70;;
68866;SDS011;56451;44.804;20.476;2023-04-09T03:13:50;50.58;;;26.48;;
68866;SDS011;56451;44.804;20.476;2023-04-09T03:16:16;50.73;;;27.00;;
68866;SDS011;56451;44.804;20.476;2023-04-09T03:18:42;47.83;;;25.83;;
68866;SDS011;56451;44.804;20.476;2023-04-09T03:21:08;43.00;;;24.05;;
68866;SDS011;56451;44.804;20.476;2023-04-09T03:23:37;45.13;;;24.20;;
68866;SDS011;56451;44.804;20.476;2023-04-09T03:26:04;44.53;;;24.40;;
68866;SDS011;56451;44.804;20.476;2023-04-09T03:28:38;46.55;;;25.67;;
68866;SDS011;56451;44.804;20.476;2023-04-09T03:31:04;43.47;;;24.75;;
68866;SDS011;56451;44.804;20.476;2023-04-09T03:33:34;43.83;;;26.10;;
68866;SDS011;56451;44.804;20.476;2023-04-09T03:36:01;46.47;;;24.58;;
68866;SDS011;56451;44.804;20.476;2023-04-09T03:38:45;47.13;;;26.10;;
68866;SDS011;56451;44.804;20.476;2023-04-09T03:41:23;52.35;;;26.55;;
68866;SDS011;56451;44.804;20.476;2023-04-09T03:43:52;47.90;;;27.27;;
68866;SDS011;56451;44.804;20.476;2023-04-09T03:46:22;55.30;;;28.75;;
68866;SDS011;56451;44.804;20.476;2023-04-09T03:48:50;44.20;;;25.40;;
68866;SDS011;56451;44.804;20.476;2023-04-09T03:51:16;49.13;;;25.73;;
68866;SDS011;56451;44.804;20.476;2023-04-09T03:53:49;46.35;;;25.52;;
68866;SDS011;56451;44.804;20.476;2023-04-09T03:56:15;44.95;;;25.80;;
68866;SDS011;56451;44.804;20.476;2023-04-09T03:58:42;46.88;;;25.20;;
68866;SDS011;56451;44.804;20.476;2023-04-09T04:01:10;43.33;;;24.10;;
68866;SDS011;56451;44.804;20.476;2023-04-09T04:03:43;42.37;;;23.17;;
68866;SDS011;56451;44.804;20.476;2023-04-09T04:06:17;41.38;;;23.20;;
68866;SDS011;56451;44.804;20.476;2023-04-09T04:09:06;42.22;;;23.60;;
68866;SDS011;56451;44.804;20.476;2023-04-09T04:11:54;44.95;;;23.08;;
68866;SDS011;56451;44.804;20.476;2023-04-09T04:14:26;41.13;;;22.98;;
68866;SDS011;56451;44.804;20.476;2023-04-09T04:16:59;43.43;;;25.27;;
68866;SDS011;56451;44.804;20.476;2023-04-09T04:19:29;45.03;;;24.27;;
68866;SDS011;56451;44.804;20.476;2023-04-09T04:21:55;42.40;;;23.83;;
68866;SDS011;56451;44.804;20.476;2023-04-09T04:24:21;43.25;;;23.42;;
68866;SDS011;56451;44.804;20.476;2023-04-09T04:26:47;44.08;;;24.00;;
68866;SDS011;56451;44.804;20.476;2023-04-09T04:29:16;40.10;;;24.03;;
68866;SDS011;56451;44.804;20.476;2023-04-09T04:31:49;46.30;;;24.80;;
68866;SDS011;56451;44.804;20.476;2023-04-09T04:34:18;46.15;;;24.60;;
68866;SDS011;56451;44.804;20.476;2023-04-09T04:36:49;42.47;;;23.73;;
68866;SDS011;56451;44.804;20.476;2023-04-09T04:39:16;43.05;;;24.65;;
68866;SDS011;56451;44.804;20.476;2023-04-09T04:41:56;42.93;;;23.80;;
68866;SDS011;56451;44.804;20.476;2023-04-09T04:44:25;45.22;;;24.25;;
68866;SDS011;56451;44.804;20.476;2023-04-09T04:47:03;41.15;;;23.73;;
68866;SDS011;56451;44.804;20.476;2023-04-09T04:49:29;47.58;;;26.02;;
68866;SDS011;56451;44.804;20.476;2023-04-09T04:51:56;51.43;;;26.20;;
68866;SDS011;56451;44.804;20.476;2023-04-09T04:54:22;48.45;;;26.48;;
68866;SDS011;56451;44.804;20.476;2023-04-09T04:56:52;50.28;;;26.30;;
68866;SDS011;56451;44.804;20.476;2023-04-09T04:59:31;46.53;;;24.50;;
68866;SDS011;56451;44.804;20.476;2023-04-09T05:02:01;44.47;;;25.65;;
68866;SDS011;56451;44.804;20.476;2023-04-09T05:04:31;48.47;;;25.70;;
68866;SDS011;56451;44.804;20.476;2023-04-09T05:06:57;49.50;;;25.85;;
68866;SDS011;56451;44.804;20.476;2023-04-09T05:09:24;46.95;;;25.33;;
68866;SDS011;56451;44.804;20.476;2023-04-09T05:11:59;45.38;;;25.27;;
68866;SDS011;56451;44.804;20.476;2023-04-09T05:14:26;46.08;;;24.75;;
68866;SDS011;56451;44.804;20.476;2023-04-09T05:16:52;45.00;;;25.23;;
68866;SDS011;56451;44.804;20.476;2023-04-09T05:19:22;39.47;;;23.77;;
68866;SDS011;56451;44.804;20.476;2023-04-09T05:21:54;44.25;;;23.70;;
68866;SDS011;56451;44.804;20.476;2023-04-09T05:24:21;46.45;;;25.50;;
68866;SDS011;56451;44.804;20.476;2023-04-09T05:26:48;53.25;;;26.73;;
68866;SDS011;56451;44.804;20.476;2023-04-09T05:29:14;46.07;;;26.17;;
68866;SDS011;56451;44.804;20.476;2023-04-09T05:31:41;45.75;;;26.42;;
68866;SDS011;56451;44.804;20.476;2023-04-09T05:34:20;47.08;;;25.90;;
68866;SDS011;56451;44.804;20.476;2023-04-09T05:36:50;45.58;;;24.83;;
68866;SDS011;56451;44.804;20.476;2023-04-09T05:39:16;41.65;;;24.48;;
68866;SDS011;56451;44.804;20.476;2023-04-09T05:41:43;47.53;;;26.37;;
68866;SDS011;56451;44.804;20.476;2023-04-09T05:44:35;50.60;;;26.85;;
68866;SDS011;56451;44.804;20.476;2023-04-09T05:47:09;47.20;;;27.02;;
68866;SDS011;56451;44.804;20.476;2023-04-09T05:49:41;48.05;;;26.65;;
68866;SDS011;56451;44.804;20.476;2023-04-09T05:52:11;46.67;;;27.02;;
68866;SDS011;56451;44.804;20.476;2023-04-09T05:54:37;45.87;;;25.33;;
68866;SDS011;56451;44.804;20.476;2023-04-09T05:57:05;51.40;;;26.95;;
68866;SDS011;56451;44.804;20.476;2023-04-09T05:59:34;48.47;;;27.25;;
68866;SDS011;56451;44.804;20.476;2023-04-09T06:02:00;44.57;;;26.17;;
68866;SDS011;56451;44.804;20.476;2023-04-09T06:04:26;45.78;;;26.80;;
68866;SDS011;56451;44.804;20.476;2023-04-09T06:06:52;46.92;;;26.17;;
68866;SDS011;56451;44.804;20.476;2023-04-09T06:09:19;45.87;;;26.30;;
68866;SDS011;56451;44.804;20.476;2023-04-09T06:11:45;43.33;;;25.23;;
68866;SDS011;56451;44.804;20.476;2023-04-09T06:14:11;44.20;;;25.70;;
68866;SDS011;56451;44.804;20.476;2023-04-09T06:16:41;40.60;;;24.13;;
68866;SDS011;56451;44.804;20.476;2023-04-09T06:19:06;44.77;;;26.33;;
68866;SDS011;56451;44.804;20.476;2023-04-09T06:21:32;45.10;;;24.35;;
68866;SDS011;56451;44.804;20.476;2023-04-09T06:23:58;42.20;;;25.40;;
68866;SDS011;56451;44.804;20.476;2023-04-09T06:26:24;45.20;;;25.77;;
68866;SDS011;56451;44.804;20.476;2023-04-09T06:28:50;41.75;;;24.77;;
68866;SDS011;56451;44.804;20.476;2023-04-09T06:31:17;41.38;;;23.30;;
68866;SDS011;56451;44.804;20.476;2023-04-09T06:33:43;44.97;;;24.95;;
68866;SDS011;56451;44.804;20.476;2023-04-09T06:36:09;40.95;;;24.20;;
68866;SDS011;56451;44.804;20.476;2023-04-09T06:38:35;47.20;;;25.08;;
68866;SDS011;56451;44.804;20.476;2023-04-09T06:41:01;44.97;;;25.15;;
68866;SDS011;56451;44.804;20.476;2023-04-09T06:43:27;52.03;;;26.97;;
68866;SDS011;56451;44.804;20.476;2023-04-09T06:45:53;52.05;;;27.02;;
68866;SDS011;56451;44.804;20.476;2023-04-09T06:48:19;47.45;;;26.08;;
68866;SDS011;56451;44.804;20.476;2023-04-09T06:50:45;43.45;;;25.10;;
68866;SDS011;56451;44.804;20.476;2023-04-09T06:53:11;44.43;;;25.00;;
68866;SDS011;56451;44.804;20.476;2023-04-09T06:55:37;40.92;;;23.95;;
68866;SDS011;56451;44.804;20.476;2023-04-09T06:58:03;41.22;;;23.70;;
68866;SDS011;56451;44.804;20.476;2023-04-09T07:00:30;42.63;;;23.83;;
68866;SDS011;56451;44.804;20.476;2023-04-09T07:02:56;39.03;;;24.10;;
68866;SDS011;56451;44.804;20.476;2023-04-09T07:05:22;40.90;;;24.42;;
68866;SDS011;56451;44.804;20.476;2023-04-09T07:07:48;39.53;;;23.73;;
68866;SDS011;56451;44.804;20.476;2023-04-09T07:10:14;39.28;;;23.27;;
68866;SDS011;56451;44.804;20.476;2023-04-09T07:12:40;37.67;;;23.17;;
68866;SDS011;56451;44.804;20.476;2023-04-09T07:15:06;40.65;;;23.35;;
68866;SDS011;56451;44.804;20.476;2023-04-09T07:17:33;41.15;;;24.38;;
68866;SDS011;56451;44.804;20.476;2023-04-09T07:19:59;43.28;;;24.33;;
68866;SDS011;56451;44.804;20.476;2023-04-09T07:22:25;42.33;;;23.73;;
68866;SDS011;56451;44.804;20.476;2023-04-09T07:24:53;42.22;;;24.45;;
68866;SDS011;56451;44.804;20.476;2023-04-09T07:27:20;48.55;;;25.73;;
68866;SDS011;56451;44.804;20.476;2023-04-09T07:29:46;40.83;;;24.65;;
68866;SDS011;56451;44.804;20.476;2023-04-09T07:32:12;41.00;;;25.00;;
68866;SDS011;56451;44.804;20.476;2023-04-09T07:34:38;44.80;;;25.40;;
68866;SDS011;56451;44.804;20.476;2023-04-09T07:37:04;47.45;;;26.63;;
68866;SDS011;56451;44.804;20.476;2023-04-09T07:39:30;41.42;;;25.08;;
68866;SDS011;56451;44.804;20.476;2023-04-09T07:41:56;46.73;;;26.67;;
68866;SDS011;56451;44.804;20.476;2023-04-09T07:44:22;43.40;;;25.60;;
68866;SDS011;56451;44.804;20.476;2023-04-09T07:46:48;44.67;;;25.08;;
68866;SDS011;56451;44.804;20.476;2023-04-09T07:49:14;45.63;;;25.60;;
68866;SDS011;56451;44.804;20.476;2023-04-09T07:51:41;51.37;;;28.90;;
68866;SDS011;56451;44.804;20.476;2023-04-09T07:54:07;50.38;;;28.70;;
68866;SDS011;56451;44.804;20.476;2023-04-09T07:56:33;48.58;;;28.63;;
68866;SDS011;56451;44.804;20.476;2023-04-09T07:58:59;46.67;;;29.17;;
68866;SDS011;56451;44.804;20.476;2023-04-09T08:01:26;52.60;;;29.90;;
68866;SDS011;56451;44.804;20.476;2023-04-09T08:03:52;48.03;;;28.75;;
68866;SDS011;56451;44.804;20.476;2023-04-09T08:06:18;46.42;;;28.27;;
68866;SDS011;56451;44.804;20.476;2023-04-09T08:08:44;51.63;;;29.40;;
68866;SDS011;56451;44.804;20.476;2023-04-09T08:11:10;52.10;;;29.35;;
68866;SDS011;56451;44.804;20.476;2023-04-09T08:13:36;53.47;;;28.88;;
68866;SDS011;56451;44.804;20.476;2023-04-09T08:16:02;42.85;;;25.63;;
68866;SDS011;56451;44.804;20.476;2023-04-09T08:18:29;40.88;;;25.48;;
68866;SDS011;56451;44.804;20.476;2023-04-09T08:20:55;46.30;;;25.93;;
68866;SDS011;56451;44.804;20.476;2023-04-09T08:23:21;41.53;;;25.23;;
68866;SDS011;56451;44.804;20.476;2023-04-09T08:25:47;44.47;;;25.20;;
68866;SDS011;56451;44.804;20.476;2023-04-09T08:28:13;40.47;;;24.40;;
68866;SDS011;56451;44.804;20.476;2023-04-09T08:30:39;41.47;;;25.17;;
68866;SDS011;56451;44.804;20.476;2023-04-09T08:33:05;41.00;;;23.95;;
68866;SDS011;56451;44.804;20.476;2023-04-09T08:35:31;41.38;;;24.33;;
68866;SDS011;56451;44.804;20.476;2023-04-09T08:37:58;42.10;;;24.83;;
68866;SDS011;56451;44.804;20.476;2023-04-09T08:40:24;42.97;;;24.77;;
68866;SDS011;56451;44.804;20.476;2023-04-09T08:42:54;39.80;;;23.33;;
68866;SDS011;56451;44.804;20.476;2023-04-09T08:45:21;41.05;;;25.23;;
68866;SDS011;56451;44.804;20.476;2023-04-09T08:47:48;45.85;;;26.20;;
68866;SDS011;56451;44.804;20.476;2023-04-09T08:50:15;42.63;;;24.47;;
68866;SDS011;56451;44.804;20.476;2023-04-09T08:52:41;45.83;;;25.67;;
68866;SDS011;56451;44.804;20.476;2023-04-09T08:55:07;46.08;;;25.30;;
68866;SDS011;56451;44.804;20.476;2023-04-09T08:57:37;42.47;;;25.33;;
68866;SDS011;56451;44.804;20.476;2023-04-09T09:00:03;43.77;;;25.50;;
68866;SDS011;56451;44.804;20.476;2023-04-09T09:02:30;42.05;;;24.80;;
68866;SDS011;56451;44.804;20.476;2023-04-09T09:04:56;40.55;;;24.38;;
68866;SDS011;56451;44.804;20.476;2023-04-09T09:07:28;43.25;;;24.08;;
68866;SDS011;56451;44.804;20.476;2023-04-09T09:09:55;41.28;;;23.77;;
68866;SDS011;56451;44.804;20.476;2023-04-09T09:12:38;38.60;;;23.53;;
68866;SDS011;56451;44.804;20.476;2023-04-09T09:15:27;40.10;;;24.00;;
68866;SDS011;56451;44.804;20.476;2023-04-09T09:17:56;40.42;;;25.15;;
68866;SDS011;56451;44.804;20.476;2023-04-09T09:20:24;39.67;;;23.65;;
68866;SDS011;56451;44.804;20.476;2023-04-09T09:22:52;44.90;;;25.65;;
68866;SDS011;56451;44.804;20.476;2023-04-09T09:25:20;40.70;;;24.57;;
68866;SDS011;56451;44.804;20.476;2023-04-09T09:27:50;39.83;;;25.48;;
68866;SDS011;56451;44.804;20.476;2023-04-09T09:30:20;45.35;;;27.05;;
68866;SDS011;56451;44.804;20.476;2023-04-09T09:32:51;37.28;;;23.08;;
68866;SDS011;56451;44.804;20.476;2023-04-09T09:35:45;36.25;;;22.20;;
68866;SDS011;56451;44.804;20.476;2023-04-09T09:38:22;36.47;;;22.67;;
68866;SDS011;56451;44.804;20.476;2023-04-09T09:40:48;34.85;;;22.27;;
68866;SDS011;56451;44.804;20.476;2023-04-09T09:43:14;36.20;;;22.02;;
68866;SDS011;56451;44.804;20.476;2023-04-09T09:45:40;35.25;;;22.40;;
68866;SDS011;56451;44.804;20.476;2023-04-09T09:48:09;34.00;;;21.48;;
68866;SDS011;56451;44.804;20.476;2023-04-09T09:50:37;34.57;;;21.03;;
68866;SDS011;56451;44.804;20.476;2023-04-09T09:53:06;36.22;;;22.38;;
68866;SDS011;56451;44.804;20.476;2023-04-09T09:55:33;35.30;;;21.88;;
68866;SDS011;56451;44.804;20.476;2023-04-09T10:00:57;32.92;;;20.35;;
68866;SDS011;56451;44.804;20.476;2023-04-09T10:03:26;29.87;;;19.77;;
68866;SDS011;56451;44.804;20.476;2023-04-09T10:05:55;30.77;;;20.25;;
68866;SDS011;56451;44.804;20.476;2023-04-09T10:08:23;31.58;;;20.10;;
68866;SDS011;56451;44.804;20.476;2023-04-09T10:10:49;31.15;;;19.17;;
68866;SDS011;56451;44.804;20.476;2023-04-09T10:13:28;29.45;;;18.33;;
68866;SDS011;56451;44.804;20.476;2023-04-09T10:16:04;27.73;;;18.73;;
68866;SDS011;56451;44.804;20.476;2023-04-09T10:18:32;28.80;;;19.23;;
68866;SDS011;56451;44.804;20.476;2023-04-09T10:21:06;32.47;;;18.95;;
68866;SDS011;56451;44.804;20.476;2023-04-09T10:23:52;27.58;;;17.67;;
68866;SDS011;56451;44.804;20.476;2023-04-09T10:26:18;29.85;;;17.70;;
68866;SDS011;56451;44.804;20.476;2023-04-09T10:28:45;27.40;;;18.13;;
68866;SDS011;56451;44.804;20.476;2023-04-09T10:31:11;27.52;;;19.48;;
68866;SDS011;56451;44.804;20.476;2023-04-09T10:33:38;26.58;;;18.05;;
68866;SDS011;56451;44.804;20.476;2023-04-09T10:36:08;23.10;;;16.83;;
68866;SDS011;56451;44.804;20.476;2023-04-09T10:38:39;25.33;;;16.88;;
68866;SDS011;56451;44.804;20.476;2023-04-09T10:41:12;29.10;;;18.20;;
68866;SDS011;56451;44.804;20.476;2023-04-09T10:43:42;25.55;;;16.88;;
68866;SDS011;56451;44.804;20.476;2023-04-09T10:46:31;30.33;;;19.30;;
68866;SDS011;56451;44.804;20.476;2023-04-09T10:49:14;27.45;;;18.30;;
68866;SDS011;56451;44.804;20.476;2023-04-09T10:51:47;27.55;;;18.20;;
68866;SDS011;56451;44.804;20.476;2023-04-09T10:59:32;27.23;;;18.02;;
68866;SDS011;56451;44.804;20.476;2023-04-09T11:02:03;30.38;;;19.25;;
68866;SDS011;56451;44.804;20.476;2023-04-09T11:04:55;30.45;;;18.70;;
68866;SDS011;56451;44.804;20.476;2023-04-09T11:07:24;26.00;;;17.37;;
68866;SDS011;56451;44.804;20.476;2023-04-09T11:09:50;27.50;;;18.42;;
68866;SDS011;56451;44.804;20.476;2023-04-09T11:12:17;27.27;;;19.42;;
68866;SDS011;56451;44.804;20.476;2023-04-09T11:14:43;27.40;;;19.50;;
68866;SDS011;56451;44.804;20.476;2023-04-09T11:17:09;28.43;;;19.90;;
68866;SDS011;56451;44.804;20.476;2023-04-09T11:19:35;30.27;;;19.63;;
68866;SDS011;56451;44.804;20.476;2023-04-09T11:22:04;27.55;;;19.13;;
68866;SDS011;56451;44.804;20.476;2023-04-09T11:24:43;27.77;;;19.63;;
68866;SDS011;56451;44.804;20.476;2023-04-09T11:27:15;25.03;;;17.90;;
68866;SDS011;56451;44.804;20.476;2023-04-09T11:29:44;28.75;;;18.40;;
68866;SDS011;56451;44.804;20.476;2023-04-09T11:32:11;28.67;;;18.92;;
68866;SDS011;56451;44.804;20.476;2023-04-09T11:34:37;25.65;;;18.70;;
68866;SDS011;56451;44.804;20.476;2023-04-09T11:37:03;24.87;;;17.63;;
68866;SDS011;56451;44.804;20.476;2023-04-09T11:39:36;24.53;;;17.00;;
68866;SDS011;56451;44.804;20.476;2023-04-09T11:42:02;24.77;;;18.10;;
68866;SDS011;56451;44.804;20.476;2023-04-09T11:44:28;23.60;;;17.45;;
68866;SDS011;56451;44.804;20.476;2023-04-09T11:46:56;23.30;;;16.60;;
68866;SDS011;56451;44.804;20.476;2023-04-09T11:49:23;27.15;;;15.85;;
68866;SDS011;56451;44.804;20.476;2023-04-09T11:51:49;22.20;;;15.93;;
68866;SDS011;56451;44.804;20.476;2023-04-09T11:54:16;22.55;;;16.88;;
68866;SDS011;56451;44.804;20.476;2023-04-09T11:56:42;23.65;;;16.67;;
68866;SDS011;56451;44.804;20.476;2023-04-09T11:59:09;21.27;;;16.10;;
68866;SDS011;56451;44.804;20.476;2023-04-09T12:01:34;23.20;;;16.87;;
68866;SDS011;56451;44.804;20.476;2023-04-09T12:04:00;24.15;;;17.23;;
68866;SDS011;56451;44.804;20.476;2023-04-09T12:06:26;25.80;;;18.58;;
68866;SDS011;56451;44.804;20.476;2023-04-09T12:08:53;26.93;;;17.77;;
68866;SDS011;56451;44.804;20.476;2023-04-09T12:11:25;25.65;;;18.27;;
68866;SDS011;56451;44.804;20.476;2023-04-09T12:13:59;28.98;;;19.52;;
68866;SDS011;56451;44.804;20.476;2023-04-09T12:16:25;24.45;;;17.15;;
68866;SDS011;56451;44.804;20.476;2023-04-09T12:18:51;23.50;;;16.60;;
68866;SDS011;56451;44.804;20.476;2023-04-09T12:21:23;22.73;;;16.47;;
68866;SDS011;56451;44.804;20.476;2023-04-09T12:23:52;27.30;;;18.27;;
68866;SDS011;56451;44.804;20.476;2023-04-09T12:26:18;24.45;;;17.85;;
68866;SDS011;56451;44.804;20.476;2023-04-09T12:28:44;26.75;;;18.20;;
68866;SDS011;56451;44.804;20.476;2023-04-09T12:31:10;24.83;;;15.87;;
68866;SDS011;56451;44.804;20.476;2023-04-09T12:33:36;25.52;;;17.55;;
68866;SDS011;56451;44.804;20.476;2023-04-09T12:36:04;21.77;;;16.15;;
68866;SDS011;56451;44.804;20.476;2023-04-09T12:38:30;28.27;;;18.35;;
68866;SDS011;56451;44.804;20.476;2023-04-09T12:40:56;21.97;;;16.70;;
68866;SDS011;56451;44.804;20.476;2023-04-09T12:43:22;21.63;;;15.38;;
68866;SDS011;56451;44.804;20.476;2023-04-09T12:45:48;20.98;;;15.02;;
68866;SDS011;56451;44.804;20.476;2023-04-09T12:48:14;20.58;;;15.02;;
68866;SDS011;56451;44.804;20.476;2023-04-09T12:50:40;20.50;;;14.97;;
68866;SDS011;56451;44.804;20.476;2023-04-09T12:53:06;20.90;;;15.63;;
68866;SDS011;56451;44.804;20.476;2023-04-09T12:55:33;22.98;;;16.33;;
68866;SDS011;56451;44.804;20.476;2023-04-09T12:57:59;20.15;;;15.07;;
68866;SDS011;56451;44.804;20.476;2023-04-09T13:00:26;22.05;;;15.38;;
68866;SDS011;56451;44.804;20.476;2023-04-09T13:02:55;24.07;;;15.60;;
68866;SDS011;56451;44.804;20.476;2023-04-09T13:05:21;20.70;;;15.65;;
68866;SDS011;56451;44.804;20.476;2023-04-09T13:07:47;20.83;;;15.18;;
68866;SDS011;56451;44.804;20.476;2023-04-09T13:10:13;21.15;;;15.20;;
68866;SDS011;56451;44.804;20.476;2023-04-09T13:12:39;23.03;;;16.00;;
68866;SDS011;56451;44.804;20.476;2023-04-09T13:15:05;22.40;;;16.55;;
68866;SDS011;56451;44.804;20.476;2023-04-09T13:17:31;23.38;;;17.27;;
68866;SDS011;56451;44.804;20.476;2023-04-09T13:19:57;22.30;;;16.03;;
68866;SDS011;56451;44.804;20.476;2023-04-09T13:22:23;25.88;;;17.48;;
68866;SDS011;56451;44.804;20.476;2023-04-09T13:24:49;25.58;;;17.85;;
68866;SDS011;56451;44.804;20.476;2023-04-09T13:27:15;25.83;;;18.55;;
68866;SDS011;56451;44.804;20.476;2023-04-09T13:29:41;27.00;;;17.40;;
68866;SDS011;56451;44.804;20.476;2023-04-09T13:32:07;23.90;;;16.67;;
68866;SDS011;56451;44.804;20.476;2023-04-09T13:34:35;26.70;;;17.70;;
68866;SDS011;56451;44.804;20.476;2023-04-09T13:37:01;27.48;;;18.80;;
68866;SDS011;56451;44.804;20.476;2023-04-09T13:39:27;29.80;;;18.80;;
68866;SDS011;56451;44.804;20.476;2023-04-09T13:41:53;29.45;;;20.58;;
68866;SDS011;56451;44.804;20.476;2023-04-09T13:44:20;34.03;;;20.58;;
68866;SDS011;56451;44.804;20.476;2023-04-09T13:46:47;35.80;;;22.08;;
68866;SDS011;56451;44.804;20.476;2023-04-09T13:49:13;31.65;;;20.40;;
68866;SDS011;56451;44.804;20.476;2023-04-09T13:51:39;29.60;;;19.73;;
68866;SDS011;56451;44.804;20.476;2023-04-09T13:54:05;31.60;;;20.10;;
68866;SDS011;56451;44.804;20.476;2023-04-09T13:56:33;28.65;;;18.88;;
68866;SDS011;56451;44.804;20.476;2023-04-09T13:58:58;29.98;;;20.55;;
68866;SDS011;56451;44.804;20.476;2023-04-09T14:01:25;29.53;;;20.00;;
68866;SDS011;56451;44.804;20.476;2023-04-09T14:03:52;32.75;;;19.98;;
68866;SDS011;56451;44.804;20.476;2023-04-09T14:06:18;28.05;;;18.73;;
68866;SDS011;56451;44.804;20.476;2023-04-09T14:08:44;32.63;;;20.52;;
68866;SDS011;56451;44.804;20.476;2023-04-09T14:11:10;27.92;;;19.33;;
68866;SDS011;56451;44.804;20.476;2023-04-09T14:13:39;28.50;;;19.23;;
68866;SDS011;56451;44.804;20.476;2023-04-09T14:16:06;30.08;;;19.77;;
68866;SDS011;56451;44.804;20.476;2023-04-09T14:18:33;28.27;;;19.38;;
68866;SDS011;56451;44.804;20.476;2023-04-09T14:20:59;28.65;;;18.98;;
68866;SDS011;56451;44.804;20.476;2023-04-09T14:23:25;28.50;;;18.77;;
68866;SDS011;56451;44.804;20.476;2023-04-09T14:25:51;26.80;;;18.97;;
68866;SDS011;56451;44.804;20.476;2023-04-09T14:28:18;27.58;;;18.60;;
68866;SDS011;56451;44.804;20.476;2023-04-09T14:30:44;26.23;;;17.63;;